Time;durP1;ratioP1;P1;durP2;ratioP2;P2;SDS_P1;SDS_P2;PMS_P1;PMS_P2;Temp;Humidity;BMP_temperature;BMP_pressure;BME280_temperature;BME280_humidity;BME280_pressure;Samples;Min_cycle;Max_cycle;Signal;HPM_P1;HPM_P2
2021/04/09 00:00:27;;;;;;;19.48;17.35;;;;;;;;;;5102674;28;20175;-75
2021/04/09 00:02:56;;;;;;;19.20;17.08;;;;;;;;;;5107081;28;20265;-72
2021/04/09 00:05:22;;;;;;;18.80;17.00;;;;;;;;;;5106310;28;20219;-76
2021/04/09 00:07:49;;;;;;;19.10;16.93;;;;;;;;;;5108301;28;20205;-75
2021/04/09 00:10:15;;;;;;;19.90;17.33;;;;;;;;;;5100514;28;20910;-75
2021/04/09 00:12:41;;;;;;;20.70;16.20;;;;;;;;;;5107742;28;20198;-76
2021/04/09 00:15:08;;;;;;;19.13;16.83;;;;;;;;;;5096770;27;20180;-74
2021/04/09 00:17:36;;;;;;;18.00;16.02;;;;;;;;;;5101007;28;20215;-76
2021/04/09 00:20:02;;;;;;;19.67;17.60;;;;;;;;;;5101803;28;20183;-75
2021/04/09 00:22:30;;;;;;;21.40;17.00;;;;;;;;;;5108042;28;20174;-76
2021/04/09 00:24:56;;;;;;;20.75;17.83;;;;;;;;;;5102711;28;20181;-74
2021/04/09 00:27:22;;;;;;;19.40;17.00;;;;;;;;;;5094314;28;20274;-74
2021/04/09 00:29:48;;;;;;;21.58;17.83;;;;;;;;;;5089251;28;20409;-77
2021/04/09 00:32:14;;;;;;;18.57;16.67;;;;;;;;;;5101115;28;20179;-74
2021/04/09 00:34:40;;;;;;;20.60;17.33;;;;;;;;;;5096652;28;20465;-74
2021/04/09 00:37:06;;;;;;;22.10;17.07;;;;;;;;;;5094356;28;20517;-76
2021/04/09 00:39:31;;;;;;;21.07;16.37;;;;;;;;;;5081020;28;20743;-75
2021/04/09 00:41:57;;;;;;;19.57;17.57;;;;;;;;;;5094053;28;20417;-75
2021/04/09 00:44:23;;;;;;;20.10;16.63;;;;;;;;;;5094498;28;20384;-75
2021/04/09 00:46:49;;;;;;;20.80;16.35;;;;;;;;;;5108200;28;20399;-75
2021/04/09 00:49:15;;;;;;;19.15;17.08;;;;;;;;;;5100876;28;20201;-76
2021/04/09 00:51:41;;;;;;;18.13;16.23;;;;;;;;;;5097252;28;20175;-76
2021/04/09 00:54:08;;;;;;;22.33;17.40;;;;;;;;;;5102991;28;20734;-74
2021/04/09 00:56:35;;;;;;;20.63;16.23;;;;;;;;;;5092658;28;20829;-75
2021/04/09 00:59:01;;;;;;;18.88;15.73;;;;;;;;;;5097027;28;20171;-76
2021/04/09 01:01:28;;;;;;;19.05;15.82;;;;;;;;;;5095786;28;20214;-75
2021/04/09 01:03:54;;;;;;;19.77;16.10;;;;;;;;;;5093414;28;20172;-74
2021/04/09 01:06:21;;;;;;;19.58;16.65;;;;;;;;;;5095603;28;20230;-76
2021/04/09 01:08:47;;;;;;;22.75;16.88;;;;;;;;;;5106850;28;20218;-74
2021/04/09 01:11:13;;;;;;;18.48;16.20;;;;;;;;;;5101376;28;20248;-75
2021/04/09 01:13:39;;;;;;;19.98;17.00;;;;;;;;;;5102607;28;20195;-74
2021/04/09 01:16:10;;;;;;;19.00;16.58;;;;;;;;;;5107587;28;20195;-75
2021/04/09 01:18:46;;;;;;;17.92;16.00;;;;;;;;;;5099485;28;20175;-74
2021/04/09 01:21:35;;;;;;;22.77;17.13;;;;;;;;;;5093136;28;20175;-74
2021/04/09 01:24:16;;;;;;;18.77;16.42;;;;;;;;;;5104338;28;20194;-73
2021/04/09 01:26:48;;;;;;;20.48;15.60;;;;;;;;;;5094635;28;20207;-74
2021/04/09 01:29:28;;;;;;;18.02;15.93;;;;;;;;;;5093347;28;20216;-73
2021/04/09 01:31:54;;;;;;;19.85;17.20;;;;;;;;;;5109195;28;20171;-75
2021/04/09 01:34:20;;;;;;;18.10;15.90;;;;;;;;;;5104775;28;20221;-73
2021/04/09 01:36:52;;;;;;;18.35;16.05;;;;;;;;;;5100408;28;20449;-76
2021/04/09 01:39:21;;;;;;;18.65;16.65;;;;;;;;;;5097470;28;20697;-74
2021/04/09 01:41:49;;;;;;;19.23;16.30;;;;;;;;;;5095515;28;20176;-74
2021/04/09 01:44:20;;;;;;;21.38;15.48;;;;;;;;;;5099429;28;20199;-73
2021/04/09 01:46:46;;;;;;;17.90;16.10;;;;;;;;;;5093458;28;20206;-74
2021/04/09 01:49:12;;;;;;;19.58;16.77;;;;;;;;;;5098068;28;20611;-75
2021/04/09 01:51:40;;;;;;;19.40;16.42;;;;;;;;;;5104119;28;20206;-73
2021/04/09 01:54:06;;;;;;;19.95;16.10;;;;;;;;;;5092775;28;20195;-74
2021/04/09 01:56:33;;;;;;;18.88;15.60;;;;;;;;;;5096552;28;20198;-75
2021/04/09 01:58:59;;;;;;;18.98;15.23;;;;;;;;;;5093082;28;20683;-74
2021/04/09 02:01:25;;;;;;;19.92;15.85;;;;;;;;;;5099883;28;20205;-74
2021/04/09 02:03:53;;;;;;;21.77;17.50;;;;;;;;;;5092683;28;20179;-75
2021/04/09 02:06:19;;;;;;;18.27;15.18;;;;;;;;;;5105236;28;20198;-74
2021/04/09 02:08:45;;;;;;;20.65;16.27;;;;;;;;;;5107597;28;20183;-74
2021/04/09 02:11:11;;;;;;;19.73;16.17;;;;;;;;;;5103569;28;20561;-75
2021/04/09 02:13:38;;;;;;;20.90;15.98;;;;;;;;;;5101123;28;20225;-73
2021/04/09 02:16:04;;;;;;;20.10;15.80;;;;;;;;;;5096455;28;20195;-74
2021/04/09 02:18:30;;;;;;;18.90;15.68;;;;;;;;;;5093320;28;20179;-75
2021/04/09 02:20:58;;;;;;;17.88;15.98;;;;;;;;;;5095946;28;20170;-75
2021/04/09 02:23:24;;;;;;;19.02;15.70;;;;;;;;;;5101152;28;20180;-75
2021/04/09 02:25:50;;;;;;;19.08;15.32;;;;;;;;;;5091440;28;20248;-75
2021/04/09 02:28:16;;;;;;;19.23;16.47;;;;;;;;;;5092748;28;20229;-76
2021/04/09 02:30:42;;;;;;;18.25;15.27;;;;;;;;;;5093007;28;20875;-73
2021/04/09 02:33:08;;;;;;;19.83;15.63;;;;;;;;;;5091811;28;20238;-76
2021/04/09 02:35:34;;;;;;;17.10;14.02;;;;;;;;;;5108836;28;20217;-75
2021/04/09 02:38:01;;;;;;;21.05;16.70;;;;;;;;;;5098213;28;20190;-76
2021/04/09 02:40:29;;;;;;;19.27;15.77;;;;;;;;;;5096694;28;20544;-75
2021/04/09 02:42:55;;;;;;;24.27;16.65;;;;;;;;;;5099793;28;20179;-73
2021/04/09 02:45:23;;;;;;;21.55;15.50;;;;;;;;;;5114252;28;20654;-75
2021/04/09 02:47:49;;;;;;;18.48;16.23;;;;;;;;;;5110144;28;20189;-74
2021/04/09 02:50:44;;;;;;;18.58;16.38;;;;;;;;;;5100133;28;20191;-76
2021/04/09 02:53:21;;;;;;;21.13;17.35;;;;;;;;;;5073782;28;20702;-75
2021/04/09 02:55:48;;;;;;;18.38;16.30;;;;;;;;;;5101111;28;20191;-74
2021/04/09 02:58:15;;;;;;;19.10;15.80;;;;;;;;;;5096450;28;20542;-73
2021/04/09 03:00:47;;;;;;;20.52;17.10;;;;;;;;;;5102451;28;20186;-76
2021/04/09 03:03:14;;;;;;;28.80;18.02;;;;;;;;;;5116024;28;20197;-75
2021/04/09 03:05:41;;;;;;;23.00;16.25;;;;;;;;;;5101653;28;20241;-75
2021/04/09 03:08:08;;;;;;;21.08;16.13;;;;;;;;;;5096487;28;20592;-76
2021/04/09 03:10:34;;;;;;;21.90;17.13;;;;;;;;;;5096522;28;20632;-74
2021/04/09 03:13:02;;;;;;;19.85;15.30;;;;;;;;;;5111250;28;20226;-74
2021/04/09 03:15:31;;;;;;;18.67;16.40;;;;;;;;;;5089740;28;20257;-76
2021/04/09 03:18:09;;;;;;;21.60;16.60;;;;;;;;;;5104190;28;20171;-75
2021/04/09 03:20:35;;;;;;;18.88;15.70;;;;;;;;;;5103899;28;20171;-76
2021/04/09 03:23:01;;;;;;;21.13;16.48;;;;;;;;;;5095740;28;20194;-75
2021/04/09 03:25:27;;;;;;;18.30;15.52;;;;;;;;;;5098204;28;20214;-76
2021/04/09 03:27:53;;;;;;;17.52;15.60;;;;;;;;;;5093642;28;20176;-74
2021/04/09 03:30:20;;;;;;;18.48;16.05;;;;;;;;;;5108297;28;20179;-75
2021/04/09 03:32:50;;;;;;;20.85;15.40;;;;;;;;;;5098811;28;22189;-75
2021/04/09 03:35:19;;;;;;;18.75;15.10;;;;;;;;;;5095919;28;20257;-75
2021/04/09 03:37:45;;;;;;;21.42;15.85;;;;;;;;;;5096699;28;20183;-75
2021/04/09 03:40:12;;;;;;;16.67;14.88;;;;;;;;;;5099532;28;20194;-75
2021/04/09 03:42:38;;;;;;;20.60;15.45;;;;;;;;;;5095451;28;20179;-75
2021/04/09 03:45:05;;;;;;;17.80;15.85;;;;;;;;;;5101660;28;20515;-72
2021/04/09 03:47:31;;;;;;;19.65;15.90;;;;;;;;;;5095760;28;20225;-75
2021/04/09 03:49:57;;;;;;;17.40;15.20;;;;;;;;;;5116259;28;20512;-74
2021/04/09 03:52:23;;;;;;;21.90;16.97;;;;;;;;;;5104464;28;20172;-74
2021/04/09 03:54:49;;;;;;;18.90;14.85;;;;;;;;;;5094655;28;20453;-75
2021/04/09 03:57:15;;;;;;;20.63;15.80;;;;;;;;;;5095250;28;20607;-75
2021/04/09 03:59:41;;;;;;;21.50;15.57;;;;;;;;;;5095030;28;20176;-77
2021/04/09 04:02:07;;;;;;;16.77;14.97;;;;;;;;;;5098912;28;20532;-76
2021/04/09 04:04:33;;;;;;;21.40;15.77;;;;;;;;;;5101956;28;20415;-75
2021/04/09 04:06:59;;;;;;;21.88;15.57;;;;;;;;;;5106337;28;20560;-74
2021/04/09 04:09:25;;;;;;;18.63;14.45;;;;;;;;;;5095387;28;20176;-75
2021/04/09 04:11:51;;;;;;;20.98;15.40;;;;;;;;;;5107757;28;20175;-74
2021/04/09 04:14:17;;;;;;;22.97;16.70;;;;;;;;;;5110308;28;20267;-74
2021/04/09 04:16:43;;;;;;;21.40;15.20;;;;;;;;;;5100530;27;20452;-75
2021/04/09 04:19:09;;;;;;;21.38;15.85;;;;;;;;;;5102899;28;20536;-76
2021/04/09 04:21:35;;;;;;;18.27;15.20;;;;;;;;;;5102781;28;20518;-76
2021/04/09 04:24:01;;;;;;;17.77;14.45;;;;;;;;;;5105089;28;20183;-74
2021/04/09 04:26:27;;;;;;;15.57;13.98;;;;;;;;;;5096937;28;20664;-75
2021/04/09 04:28:53;;;;;;;17.50;15.57;;;;;;;;;;5094609;28;20179;-75
2021/04/09 04:31:19;;;;;;;19.70;16.33;;;;;;;;;;5105193;28;20391;-75
2021/04/09 04:33:45;;;;;;;19.73;15.35;;;;;;;;;;5095973;28;20576;-75
2021/04/09 04:36:11;;;;;;;19.70;15.33;;;;;;;;;;5104652;28;20187;-75
2021/04/09 04:38:37;;;;;;;20.10;15.55;;;;;;;;;;5109225;28;20858;-75
2021/04/09 04:41:03;;;;;;;18.67;14.50;;;;;;;;;;5094397;28;20189;-76
2021/04/09 04:43:29;;;;;;;17.10;14.90;;;;;;;;;;5111526;28;20174;-75
2021/04/09 04:45:55;;;;;;;23.13;15.13;;;;;;;;;;5106251;28;20435;-76
2021/04/09 04:48:21;;;;;;;18.77;15.30;;;;;;;;;;5096202;28;20179;-72
2021/04/09 04:50:47;;;;;;;16.30;14.57;;;;;;;;;;5105082;28;20171;-75
2021/04/09 04:53:13;;;;;;;18.70;13.95;;;;;;;;;;5110524;28;20199;-73
2021/04/09 04:55:39;;;;;;;18.13;15.27;;;;;;;;;;5094431;28;20252;-75
2021/04/09 04:58:05;;;;;;;18.90;14.97;;;;;;;;;;5093712;28;20388;-75
2021/04/09 05:00:31;;;;;;;18.08;15.77;;;;;;;;;;5093320;28;20789;-74
2021/04/09 05:02:57;;;;;;;19.70;13.80;;;;;;;;;;5106341;28;20182;-74
2021/04/09 05:05:23;;;;;;;20.48;15.88;;;;;;;;;;5111418;28;22555;-75
2021/04/09 05:07:49;;;;;;;19.00;14.13;;;;;;;;;;5093749;28;20183;-74
2021/04/09 05:10:15;;;;;;;20.73;14.70;;;;;;;;;;5093774;28;20427;-74
2021/04/09 05:12:41;;;;;;;19.95;14.40;;;;;;;;;;5111654;28;20448;-75
2021/04/09 05:15:07;;;;;;;19.83;15.37;;;;;;;;;;5106083;28;20524;-74
2021/04/09 05:17:35;;;;;;;17.75;14.07;;;;;;;;;;5096597;28;20417;-73
2021/04/09 05:20:01;;;;;;;21.08;14.68;;;;;;;;;;5093723;28;20212;-75
2021/04/09 05:22:27;;;;;;;17.25;14.30;;;;;;;;;;5111355;28;20541;-75
2021/04/09 05:24:53;;;;;;;18.73;15.27;;;;;;;;;;5105294;28;20175;-73
2021/04/09 05:27:19;;;;;;;21.17;15.00;;;;;;;;;;5093302;28;20210;-74
2021/04/09 05:29:45;;;;;;;20.90;14.63;;;;;;;;;;5093583;28;20486;-75
2021/04/09 05:32:11;;;;;;;18.95;14.18;;;;;;;;;;5097021;28;20174;-74
2021/04/09 05:34:38;;;;;;;18.90;14.90;;;;;;;;;;5113606;28;20198;-75
2021/04/09 05:37:05;;;;;;;17.90;14.32;;;;;;;;;;5096377;28;20658;-76
2021/04/09 05:39:31;;;;;;;25.73;19.67;;;;;;;;;;5093553;28;20540;-74
2021/04/09 05:41:57;;;;;;;18.77;14.80;;;;;;;;;;5096192;28;20181;-74
2021/04/09 05:44:23;;;;;;;19.17;13.68;;;;;;;;;;5092998;28;20400;-74
2021/04/09 05:46:49;;;;;;;17.63;14.77;;;;;;;;;;5097180;28;20335;-76
2021/04/09 05:49:15;;;;;;;17.42;14.68;;;;;;;;;;5093501;28;20408;-75
2021/04/09 05:51:41;;;;;;;17.07;13.60;;;;;;;;;;5111137;28;20183;-74
2021/04/09 05:54:07;;;;;;;23.27;15.82;;;;;;;;;;5113281;28;21210;-74
2021/04/09 05:56:33;;;;;;;21.20;15.18;;;;;;;;;;5101698;28;20780;-75
2021/04/09 05:59:00;;;;;;;20.85;13.40;;;;;;;;;;5108803;28;20246;-73
2021/04/09 06:01:25;;;;;;;16.75;14.02;;;;;;;;;;5092932;28;20175;-76
2021/04/09 06:03:51;;;;;;;21.17;14.37;;;;;;;;;;5103800;28;20182;-76
2021/04/09 06:06:17;;;;;;;17.60;13.90;;;;;;;;;;5098221;28;20802;-73
2021/04/09 06:08:43;;;;;;;19.03;14.83;;;;;;;;;;5092395;28;20187;-73
2021/04/09 06:11:19;;;;;;;17.67;14.13;;;;;;;;;;5101277;28;20889;-75
2021/04/09 06:13:45;;;;;;;19.58;14.45;;;;;;;;;;5092266;28;20199;-75
2021/04/09 06:16:11;;;;;;;19.58;15.20;;;;;;;;;;5092407;28;20195;-74
2021/04/09 06:18:37;;;;;;;17.85;14.55;;;;;;;;;;5092414;28;20171;-74
2021/04/09 06:21:03;;;;;;;19.05;13.40;;;;;;;;;;5098970;28;20200;-76
2021/04/09 06:23:29;;;;;;;21.65;14.75;;;;;;;;;;5113202;28;20171;-75
2021/04/09 06:25:55;;;;;;;16.70;14.20;;;;;;;;;;5095951;28;20547;-75
2021/04/09 06:28:20;;;;;;;18.15;15.02;;;;;;;;;;5092613;28;20436;-75
2021/04/09 06:30:46;;;;;;;25.17;15.07;;;;;;;;;;5104052;28;20714;-75
2021/04/09 06:33:12;;;;;;;20.95;15.38;;;;;;;;;;5093938;28;20449;-74
2021/04/09 06:35:38;;;;;;;18.42;14.43;;;;;;;;;;5092863;28;20202;-76
2021/04/09 06:38:04;;;;;;;19.65;15.38;;;;;;;;;;5105420;28;20166;-74
2021/04/09 06:40:32;;;;;;;18.03;14.67;;;;;;;;;;5113274;28;20202;-74
2021/04/09 06:43:00;;;;;;;15.75;13.30;;;;;;;;;;5103251;28;20430;-74
2021/04/09 06:45:26;;;;;;;18.50;14.98;;;;;;;;;;5073941;28;20196;-74
2021/04/09 06:47:52;;;;;;;17.05;13.93;;;;;;;;;;5088284;28;20254;-76
2021/04/09 06:50:18;;;;;;;17.80;13.93;;;;;;;;;;5086268;28;20256;-75
2021/04/09 06:52:45;;;;;;;18.17;14.85;;;;;;;;;;5088242;28;20233;-77
2021/04/09 06:55:11;;;;;;;20.55;15.43;;;;;;;;;;5088031;28;20255;-74
2021/04/09 06:57:39;;;;;;;19.35;14.85;;;;;;;;;;5089037;28;20187;-75
2021/04/09 07:00:09;;;;;;;17.42;13.57;;;;;;;;;;5088608;28;20683;-76
2021/04/09 07:02:35;;;;;;;17.40;14.40;;;;;;;;;;5089619;28;20176;-76
2021/04/09 07:05:02;;;;;;;20.35;14.55;;;;;;;;;;5087904;28;20589;-74
2021/04/09 07:07:28;;;;;;;17.73;15.02;;;;;;;;;;5082605;28;20205;-75
2021/04/09 07:09:54;;;;;;;17.45;14.65;;;;;;;;;;5095681;28;20207;-76
2021/04/09 07:12:30;;;;;;;20.42;15.02;;;;;;;;;;5088544;28;20267;-74
2021/04/09 07:14:57;;;;;;;17.55;13.95;;;;;;;;;;5087809;28;20215;-74
2021/04/09 07:17:24;;;;;;;18.85;14.50;;;;;;;;;;5088762;28;20204;-74
2021/04/09 07:19:51;;;;;;;17.45;14.10;;;;;;;;;;5077218;28;20184;-74
2021/04/09 07:22:28;;;;;;;17.90;15.30;;;;;;;;;;5086189;28;20211;-75
2021/04/09 07:25:02;;;;;;;15.02;13.52;;;;;;;;;;5098177;28;20201;-74
2021/04/09 07:27:28;;;;;;;17.00;14.73;;;;;;;;;;5093489;28;20202;-74
2021/04/09 07:29:54;;;;;;;20.57;14.03;;;;;;;;;;5091399;28;20525;-74
2021/04/09 07:32:24;;;;;;;16.50;14.67;;;;;;;;;;5092158;28;20431;-74
2021/04/09 07:34:52;;;;;;;17.17;14.57;;;;;;;;;;5090393;28;20530;-74
2021/04/09 07:37:18;;;;;;;25.20;15.75;;;;;;;;;;5091928;28;20199;-75
2021/04/09 07:39:44;;;;;;;16.65;14.85;;;;;;;;;;5095607;28;20521;-75
2021/04/09 07:42:11;;;;;;;18.45;14.38;;;;;;;;;;5112321;28;20171;-75
2021/04/09 07:44:39;;;;;;;19.05;15.57;;;;;;;;;;5099050;28;20183;-75
2021/04/09 07:47:11;;;;;;;17.77;14.25;;;;;;;;;;5104153;28;20209;-75
2021/04/09 07:49:37;;;;;;;21.02;14.25;;;;;;;;;;5091464;28;20179;-75
2021/04/09 07:52:14;;;;;;;19.02;14.52;;;;;;;;;;5091015;28;20538;-76
2021/04/09 07:54:40;;;;;;;17.63;14.40;;;;;;;;;;5091003;28;20626;-75
2021/04/09 07:57:06;;;;;;;20.27;14.80;;;;;;;;;;5103737;28;20203;-75
2021/04/09 07:59:40;;;;;;;17.95;14.68;;;;;;;;;;5090842;28;20183;-75
2021/04/09 08:02:08;;;;;;;17.17;14.15;;;;;;;;;;5106334;28;20821;-75
2021/04/09 08:04:37;;;;;;;15.82;13.95;;;;;;;;;;5111493;28;20289;-75
2021/04/09 08:07:03;;;;;;;16.00;13.93;;;;;;;;;;5097455;28;20663;-74
2021/04/09 08:09:46;;;;;;;19.70;15.48;;;;;;;;;;5091175;28;20199;-75
2021/04/09 08:12:25;;;;;;;17.65;13.88;;;;;;;;;;5095499;28;20204;-74
2021/04/09 08:14:51;;;;;;;17.95;14.48;;;;;;;;;;5095499;28;20213;-75
2021/04/09 08:17:18;;;;;;;17.33;15.33;;;;;;;;;;5095652;28;20281;-75
2021/04/09 08:19:46;;;;;;;20.65;14.80;;;;;;;;;;5105487;28;20526;-75
2021/04/09 08:22:12;;;;;;;17.73;15.10;;;;;;;;;;5097741;28;20171;-75
2021/04/09 08:24:38;;;;;;;20.33;15.40;;;;;;;;;;5093877;28;20274;-76
2021/04/09 08:27:04;;;;;;;18.40;14.95;;;;;;;;;;5090648;28;20218;-75
2021/04/09 08:29:31;;;;;;;16.58;14.80;;;;;;;;;;5099749;28;20187;-74
2021/04/09 08:31:58;;;;;;;15.85;13.60;;;;;;;;;;5111355;28;20193;-76
2021/04/09 08:34:24;;;;;;;18.92;14.90;;;;;;;;;;5105785;27;20202;-75
2021/04/09 08:36:50;;;;;;;17.40;15.17;;;;;;;;;;5111241;28;20327;-75
2021/04/09 08:39:17;;;;;;;19.65;15.40;;;;;;;;;;5094862;28;20453;-76
2021/04/09 08:41:44;;;;;;;17.33;14.45;;;;;;;;;;5090702;28;20254;-76
2021/04/09 08:44:11;;;;;;;16.80;13.38;;;;;;;;;;5089212;28;20229;-75
2021/04/09 08:46:37;;;;;;;17.52;13.88;;;;;;;;;;5100664;28;20227;-75
2021/04/09 08:49:04;;;;;;;26.38;19.40;;;;;;;;;;5090549;28;20179;-75
2021/04/09 08:51:30;;;;;;;16.77;14.68;;;;;;;;;;5092792;28;20268;-76
2021/04/09 08:54:16;;;;;;;16.13;14.43;;;;;;;;;;5110341;28;20202;-76
2021/04/09 08:56:42;;;;;;;15.02;13.43;;;;;;;;;;5104817;28;20207;-75
2021/04/09 08:59:08;;;;;;;15.95;14.05;;;;;;;;;;5089773;28;20171;-75
2021/04/09 09:01:34;;;;;;;19.77;13.55;;;;;;;;;;5089888;28;20207;-75
2021/04/09 09:04:26;;;;;;;17.58;13.52;;;;;;;;;;5102294;28;20614;-75
2021/04/09 09:06:52;;;;;;;14.93;13.32;;;;;;;;;;5103872;28;20203;-74
2021/04/09 09:09:28;;;;;;;16.93;14.30;;;;;;;;;;5090296;28;20597;-75
2021/04/09 09:12:04;;;;;;;17.70;14.43;;;;;;;;;;5089607;28;20421;-76
2021/04/09 09:14:45;;;;;;;18.05;13.60;;;;;;;;;;5095816;28;20302;-76
2021/04/09 09:17:17;;;;;;;16.50;13.40;;;;;;;;;;5089562;28;20195;-75
2021/04/09 09:19:43;;;;;;;14.65;13.10;;;;;;;;;;5090305;28;20252;-75
2021/04/09 09:22:14;;;;;;;14.57;12.32;;;;;;;;;;5090938;28;20168;-75
2021/04/09 09:25:12;;;;;;;16.65;13.50;;;;;;;;;;5109660;28;20223;-76
2021/04/09 09:27:52;;;;;;;13.70;12.40;;;;;;;;;;5065952;28;20274;-77
2021/04/09 09:30:33;;;;;;;15.30;13.50;;;;;;;;;;5088439;28;20193;-75
2021/04/09 09:33:18;;;;;;;16.23;14.63;;;;;;;;;;5088216;28;20179;-76
2021/04/09 09:35:59;;;;;;;15.65;13.30;;;;;;;;;;5077449;28;20203;-75
2021/04/09 09:38:44;;;;;;;15.93;13.43;;;;;;;;;;5089633;28;20250;-74
2021/04/09 09:41:10;;;;;;;15.32;13.05;;;;;;;;;;5089136;28;21007;-74
2021/04/09 09:43:36;;;;;;;20.33;14.00;;;;;;;;;;5103635;28;20187;-75
2021/04/09 09:46:02;;;;;;;13.60;12.20;;;;;;;;;;5100215;28;20437;-76
2021/04/09 09:48:28;;;;;;;13.93;12.48;;;;;;;;;;5096649;28;20274;-75
2021/04/09 09:50:54;;;;;;;13.07;11.50;;;;;;;;;;5108409;28;20277;-75
2021/04/09 09:53:21;;;;;;;13.38;12.00;;;;;;;;;;5106486;28;20509;-75
2021/04/09 09:55:49;;;;;;;14.00;11.80;;;;;;;;;;5089390;28;21031;-76
2021/04/09 09:58:16;;;;;;;12.48;11.05;;;;;;;;;;5089450;28;20266;-77
2021/04/09 10:01:01;;;;;;;13.30;11.90;;;;;;;;;;5089651;28;20171;-77
2021/04/09 10:03:29;;;;;;;13.20;11.90;;;;;;;;;;5089043;28;20544;-76
2021/04/09 10:06:00;;;;;;;17.67;12.25;;;;;;;;;;5088934;28;20279;-77
2021/04/09 10:08:26;;;;;;;14.20;12.27;;;;;;;;;;5077057;28;20482;-75
2021/04/09 10:10:54;;;;;;;13.85;11.95;;;;;;;;;;5089165;28;20187;-75
2021/04/09 10:13:32;;;;;;;13.07;11.65;;;;;;;;;;5093067;28;20218;-75
2021/04/09 10:16:07;;;;;;;12.68;11.38;;;;;;;;;;5087414;28;20298;-75
2021/04/09 10:18:33;;;;;;;13.00;11.80;;;;;;;;;;5094727;28;20262;-76
2021/04/09 10:21:09;;;;;;;16.05;12.38;;;;;;;;;;5093046;28;20186;-76
2021/04/09 10:23:35;;;;;;;13.18;11.73;;;;;;;;;;5090848;28;20175;-76
2021/04/09 10:26:01;;;;;;;13.23;11.93;;;;;;;;;;5108331;28;20238;-76
2021/04/09 10:28:32;;;;;;;15.67;12.90;;;;;;;;;;5092766;28;20292;-76
2021/04/09 10:31:08;;;;;;;14.32;12.82;;;;;;;;;;5097130;28;20856;-76
2021/04/09 10:33:44;;;;;;;12.88;11.55;;;;;;;;;;5098059;28;20336;-76
2021/04/09 10:36:17;;;;;;;12.07;10.88;;;;;;;;;;5088599;28;20549;-76
2021/04/09 10:38:43;;;;;;;12.00;10.90;;;;;;;;;;5101926;28;20178;-76
2021/04/09 10:41:21;;;;;;;11.07;10.00;;;;;;;;;;5088427;28;20187;-74
2021/04/09 10:43:53;;;;;;;11.75;10.55;;;;;;;;;;5087889;28;20743;-75
2021/04/09 10:46:19;;;;;;;13.35;10.98;;;;;;;;;;5088414;28;20211;-75
2021/04/09 10:48:45;;;;;;;11.88;10.77;;;;;;;;;;5109265;28;20179;-75
2021/04/09 10:51:11;;;;;;;14.75;11.35;;;;;;;;;;5097025;28;20183;-74
2021/04/09 10:53:40;;;;;;;11.82;10.63;;;;;;;;;;5088264;28;20205;-76
2021/04/09 10:56:10;;;;;;;11.93;10.80;;;;;;;;;;5088651;28;20203;-75
2021/04/09 10:58:37;;;;;;;11.23;10.05;;;;;;;;;;5092677;28;20186;-75
2021/04/09 11:01:03;;;;;;;10.93;9.82;;;;;;;;;;5092690;28;20262;-75
2021/04/09 11:03:30;;;;;;;10.75;9.68;;;;;;;;;;5099334;28;20218;-76
2021/04/09 11:05:57;;;;;;;11.10;10.00;;;;;;;;;;5111281;28;20312;-75
2021/04/09 11:08:29;;;;;;;10.02;8.98;;;;;;;;;;5099179;28;20246;-74
2021/04/09 11:11:00;;;;;;;10.07;9.00;;;;;;;;;;5092371;28;20230;-75
2021/04/09 11:13:37;;;;;;;10.45;9.20;;;;;;;;;;5097437;28;20281;-76
2021/04/09 11:16:03;;;;;;;9.63;8.65;;;;;;;;;;5092444;28;20194;-76
2021/04/09 11:18:48;;;;;;;10.02;9.02;;;;;;;;;;5091405;28;20187;-73
2021/04/09 11:21:15;;;;;;;10.50;8.82;;;;;;;;;;5091991;28;20178;-73
2021/04/09 11:23:41;;;;;;;12.15;9.00;;;;;;;;;;5112287;28;20179;-73
2021/04/09 11:26:20;;;;;;;15.98;9.63;;;;;;;;;;5092806;28;20204;-73
2021/04/09 11:28:53;;;;;;;10.63;9.45;;;;;;;;;;5092065;28;20235;-73
2021/04/09 11:31:24;;;;;;;11.02;9.63;;;;;;;;;;5092194;28;20622;-73
2021/04/09 11:34:03;;;;;;;11.68;9.18;;;;;;;;;;5091767;28;20568;-73
2021/04/09 11:36:29;;;;;;;11.98;9.00;;;;;;;;;;5092240;28;20203;-73
2021/04/09 11:39:09;;;;;;;10.63;9.35;;;;;;;;;;5089820;28;20183;-73
2021/04/09 11:41:37;;;;;;;12.20;10.88;;;;;;;;;;5092076;28;20175;-74
2021/04/09 11:44:22;;;;;;;14.02;11.43;;;;;;;;;;5091656;28;20187;-73
2021/04/09 11:46:48;;;;;;;11.95;10.60;;;;;;;;;;5094646;28;20194;-79
2021/04/09 11:49:15;;;;;;;11.45;10.23;;;;;;;;;;5090060;28;20258;-80
2021/04/09 11:51:41;;;;;;;16.88;13.38;;;;;;;;;;5091590;28;20211;-78
2021/04/09 11:54:13;;;;;;;12.70;10.77;;;;;;;;;;5094601;28;20636;-80
2021/04/09 11:56:40;;;;;;;11.65;10.32;;;;;;;;;;5105527;28;20582;-77
2021/04/09 11:59:09;;;;;;;17.77;12.02;;;;;;;;;;5099100;28;20179;-77
2021/04/09 12:01:35;;;;;;;10.75;9.65;;;;;;;;;;5092678;28;20313;-79
2021/04/09 12:04:01;;;;;;;10.63;9.63;;;;;;;;;;5099195;28;20273;-77
2021/04/09 12:06:35;;;;;;;10.60;9.60;;;;;;;;;;5101173;28;20790;-77
2021/04/09 12:09:01;;;;;;;10.88;9.80;;;;;;;;;;5103369;28;20425;-78
2021/04/09 12:11:27;;;;;;;11.57;10.23;;;;;;;;;;5090842;28;20180;-78
2021/04/09 12:13:53;;;;;;;10.47;9.57;;;;;;;;;;5106924;28;20267;-79
2021/04/09 12:16:19;;;;;;;11.53;10.33;;;;;;;;;;5111674;28;20424;-80
2021/04/09 12:18:45;;;;;;;10.17;9.27;;;;;;;;;;5108032;28;20457;-79
2021/04/09 12:21:11;;;;;;;11.00;9.88;;;;;;;;;;5091129;28;20425;-80
2021/04/09 12:23:37;;;;;;;10.00;9.03;;;;;;;;;;5109195;27;20178;-80
2021/04/09 12:26:03;;;;;;;10.07;9.00;;;;;;;;;;5091127;28;20945;-78
2021/04/09 12:28:29;;;;;;;8.98;8.18;;;;;;;;;;5097485;28;20424;-78
2021/04/09 12:30:55;;;;;;;9.50;8.63;;;;;;;;;;5104341;28;20239;-78
2021/04/09 12:33:22;;;;;;;10.20;8.83;;;;;;;;;;5110809;28;20663;-80
2021/04/09 12:35:48;;;;;;;10.20;9.10;;;;;;;;;;5091900;28;20480;-80
2021/04/09 12:38:14;;;;;;;13.57;9.32;;;;;;;;;;5090909;28;20175;-80
2021/04/09 12:40:40;;;;;;;11.45;9.48;;;;;;;;;;5104364;28;20243;-77
2021/04/09 12:43:06;;;;;;;10.17;9.13;;;;;;;;;;5097275;28;20191;-79
2021/04/09 12:45:35;;;;;;;10.52;9.43;;;;;;;;;;5092043;28;20425;-76
2021/04/09 12:48:01;;;;;;;9.70;8.90;;;;;;;;;;5090141;28;20178;-78
2021/04/09 12:50:27;;;;;;;11.87;10.77;;;;;;;;;;5111128;28;20700;-79
2021/04/09 12:52:53;;;;;;;12.93;10.90;;;;;;;;;;5096989;28;20424;-79
2021/04/09 12:55:19;;;;;;;12.00;9.38;;;;;;;;;;5110767;28;20396;-80
2021/04/09 12:57:45;;;;;;;10.15;9.25;;;;;;;;;;5103117;28;20180;-80
2021/04/09 13:00:11;;;;;;;10.20;9.23;;;;;;;;;;5104392;28;20273;-79
2021/04/09 13:02:37;;;;;;;10.27;9.23;;;;;;;;;;5104969;28;20417;-78
2021/04/09 13:05:03;;;;;;;10.55;9.55;;;;;;;;;;5089873;28;20205;-79
2021/04/09 13:07:30;;;;;;;10.30;9.30;;;;;;;;;;5089886;28;20558;-79
2021/04/09 13:09:56;;;;;;;11.15;9.23;;;;;;;;;;5093604;28;20518;-80
2021/04/09 13:12:22;;;;;;;13.47;10.23;;;;;;;;;;5090190;28;20205;-80
2021/04/09 13:14:48;;;;;;;12.25;9.65;;;;;;;;;;5091605;28;20457;-78
2021/04/09 13:17:15;;;;;;;10.07;9.07;;;;;;;;;;5088433;28;20260;-77
2021/04/09 13:19:41;;;;;;;10.85;9.73;;;;;;;;;;5087676;28;20417;-77
2021/04/09 13:22:08;;;;;;;11.07;9.60;;;;;;;;;;5089124;28;20201;-78
2021/04/09 13:24:37;;;;;;;11.20;10.10;;;;;;;;;;5089439;28;20176;-77
2021/04/09 13:27:04;;;;;;;11.82;10.73;;;;;;;;;;5098174;28;20293;-78
2021/04/09 13:29:30;;;;;;;12.27;10.77;;;;;;;;;;5089665;28;20600;-78
2021/04/09 13:31:56;;;;;;;15.48;11.50;;;;;;;;;;5100686;28;20265;-79
2021/04/09 13:34:25;;;;;;;11.40;10.30;;;;;;;;;;5105462;28;20294;-79
2021/04/09 13:36:51;;;;;;;11.13;10.02;;;;;;;;;;5101384;28;20690;-79
2021/04/09 13:39:17;;;;;;;12.10;10.85;;;;;;;;;;5093441;28;20233;-77
2021/04/09 13:41:43;;;;;;;11.97;10.20;;;;;;;;;;5098249;28;20171;-79
2021/04/09 13:44:09;;;;;;;12.93;11.63;;;;;;;;;;5107004;28;20785;-78
2021/04/09 13:46:35;;;;;;;11.23;10.20;;;;;;;;;;5089626;28;20683;-79
2021/04/09 13:49:01;;;;;;;12.60;11.40;;;;;;;;;;5088987;28;20183;-78
2021/04/09 13:51:27;;;;;;;11.93;10.73;;;;;;;;;;5091200;28;20202;-77
2021/04/09 13:53:54;;;;;;;14.95;13.30;;;;;;;;;;5089034;28;20494;-75
2021/04/09 13:56:20;;;;;;;12.73;11.43;;;;;;;;;;5099836;28;20675;-76
2021/04/09 13:58:49;;;;;;;11.77;10.45;;;;;;;;;;5098177;28;20226;-77
2021/04/09 14:01:15;;;;;;;12.18;10.60;;;;;;;;;;5088036;28;20203;-77
2021/04/09 14:03:41;;;;;;;12.13;10.88;;;;;;;;;;5094084;28;20182;-79
2021/04/09 14:06:07;;;;;;;11.97;10.00;;;;;;;;;;5097197;28;20363;-79
2021/04/09 14:08:33;;;;;;;11.20;10.10;;;;;;;;;;5087823;28;20436;-79
2021/04/09 14:10:59;;;;;;;12.20;10.85;;;;;;;;;;5088509;28;20252;-79
2021/04/09 14:13:28;;;;;;;12.15;10.90;;;;;;;;;;5088869;28;20198;-81
2021/04/09 14:15:54;;;;;;;11.25;10.25;;;;;;;;;;5088073;28;20199;-77
2021/04/09 14:18:20;;;;;;;12.07;10.77;;;;;;;;;;5095482;28;20639;-79
2021/04/09 14:20:46;;;;;;;7.45;5.80;;;;;;;;;;5109523;28;20416;-78
2021/04/09 14:23:12;;;;;;;5.47;4.50;;;;;;;;;;5109331;28;20307;-77